JST0128 YPAD-YSSY
Flight info
| Callsign | JST0128 |
|---|---|
| Flight time | N/A |
| Altitude | 29000 |
| Route | AD H247 CULIN Y59 TESAT |
| Aircraft | A20N/M-SDE2E3FGHIRWXY/LB1 |
Departure
| Time | 2026-05-06 00:18 |
|---|---|
| Airport | Adelaide International Airport (YPAD) |
Arrival
| Time | N/A |
|---|---|
| Airport | Sydney Kingsford Smith International Airport (YSSY) |
| Time | Latitude | Longitude | Altitude | Speed | Heading |
|---|---|---|---|---|---|
| 2026-05-05 22:58 | -34.94031 | 138.53698 | 26 ft | 0 kts | 320° |
| 2026-05-05 23:54 | -34.94031 | 138.53697 | 25 ft | 0 kts | 320° |
| 2026-05-05 23:58 | -34.94031 | 138.53698 | 25 ft | 0 kts | 320° |
| 2026-05-06 00:07 | -34.94047 | 138.53714 | 29 ft | 4 kts | 320° |
| 2026-05-06 00:08 | -34.94063 | 138.53730 | 30 ft | 4 kts | 320° |
| 2026-05-06 00:08 | -34.94085 | 138.53750 | 28 ft | 4 kts | 335° |
| 2026-05-06 00:08 | -34.94105 | 138.53754 | 27 ft | 2 kts | 49° |
| 2026-05-06 00:08 | -34.94107 | 138.53752 | 28 ft | 0 kts | 51° |
| 2026-05-06 00:11 | -34.94106 | 138.53753 | 27 ft | 1 kts | 51° |
| 2026-05-06 00:11 | -34.94090 | 138.53777 | 29 ft | 7 kts | 51° |
| 2026-05-06 00:11 | -34.94070 | 138.53808 | 29 ft | 0 kts | 51° |
| 2026-05-06 00:12 | -34.94055 | 138.53831 | 27 ft | 6 kts | 51° |
| 2026-05-06 00:13 | -34.94014 | 138.53890 | 27 ft | 12 kts | 48° |
| 2026-05-06 00:13 | -34.93951 | 138.53975 | 27 ft | 11 kts | 48° |
| 2026-05-06 00:13 | -34.93909 | 138.54031 | 26 ft | 11 kts | 47° |
| 2026-05-06 00:13 | -34.93885 | 138.54118 | 26 ft | 14 kts | 109° |
| 2026-05-06 00:14 | -34.93958 | 138.54207 | 27 ft | 13 kts | 140° |
| 2026-05-06 00:14 | -34.93984 | 138.54234 | 27 ft | 2 kts | 140° |
| 2026-05-06 00:14 | -34.94001 | 138.54251 | 28 ft | 0 kts | 140° |
| 2026-05-06 00:15 | -34.94003 | 138.54253 | 27 ft | 2 kts | 140° |
| 2026-05-06 00:15 | -34.94004 | 138.54254 | 27 ft | 0 kts | 140° |
| 2026-05-06 00:17 | -34.94005 | 138.54255 | 27 ft | 1 kts | 140° |
| 2026-05-06 00:17 | -34.94029 | 138.54271 | 28 ft | 7 kts | 157° |
| 2026-05-06 00:17 | -34.94090 | 138.54287 | 26 ft | 11 kts | 182° |
| 2026-05-06 00:17 | -34.94146 | 138.54217 | 27 ft | 13 kts | 237° |
| 2026-05-06 00:18 | -34.94254 | 138.54055 | 27 ft | 57 kts | 229° |
| 2026-05-06 00:18 | -34.94693 | 138.53422 | 27 ft | 134 kts | 229° |
| 2026-05-06 00:18 | -34.95397 | 138.52581 | 675 ft | 136 kts | 224° |
| 2026-05-06 00:18 | -34.96116 | 138.51772 | 1347 ft | 146 kts | 233° |
| 2026-05-06 00:19 | -34.96517 | 138.50638 | 2081 ft | 153 kts | 270° |
| 2026-05-06 00:19 | -34.96183 | 138.49359 | 2757 ft | 172 kts | 308° |
| 2026-05-06 00:19 | -34.95103 | 138.48570 | 3405 ft | 199 kts | 345° |
| 2026-05-06 00:19 | -34.93647 | 138.48732 | 3864 ft | 230 kts | 20° |
| 2026-05-06 00:20 | -34.92345 | 138.49990 | 4497 ft | 249 kts | 55° |
| 2026-05-06 00:20 | -34.91754 | 138.51960 | 5425 ft | 252 kts | 88° |
| 2026-05-06 00:20 | -34.92042 | 138.54043 | 6292 ft | 251 kts | 120° |
| 2026-05-06 00:20 | -34.93009 | 138.55798 | 7177 ft | 250 kts | 131° |
| 2026-05-06 00:21 | -34.93958 | 138.57609 | 8004 ft | 258 kts | 120° |
| 2026-05-06 00:21 | -34.94588 | 138.59674 | 8864 ft | 263 kts | 106° |
| 2026-05-06 00:21 | -34.94913 | 138.61894 | 9730 ft | 268 kts | 97° |
| 2026-05-06 00:21 | -34.95051 | 138.64154 | 10574 ft | 271 kts | 93° |
| 2026-05-06 00:22 | -34.95108 | 138.66471 | 11367 ft | 275 kts | 92° |
| 2026-05-06 00:22 | -34.95142 | 138.68821 | 12152 ft | 280 kts | 92° |
| 2026-05-06 00:22 | -34.95176 | 138.71211 | 12923 ft | 285 kts | 92° |
| 2026-05-06 00:22 | -34.95219 | 138.73708 | 13322 ft | 306 kts | 92° |
| 2026-05-06 00:23 | -34.95273 | 138.76403 | 13577 ft | 330 kts | 92° |
| 2026-05-06 00:23 | -34.95335 | 138.79300 | 13819 ft | 353 kts | 92° |
| 2026-05-06 00:23 | -34.95401 | 138.82377 | 14096 ft | 373 kts | 92° |
| 2026-05-06 00:23 | -34.95469 | 138.85576 | 14680 ft | 380 kts | 92° |
| 2026-05-06 00:24 | -34.95514 | 138.87716 | 15143 ft | 383 kts | 92° |
| 2026-05-06 00:24 | -34.95604 | 138.92085 | 16054 ft | 389 kts | 92° |
| 2026-05-06 00:24 | -34.95649 | 138.94275 | 16493 ft | 392 kts | 92° |
| 2026-05-06 00:24 | -34.95716 | 138.97616 | 17149 ft | 397 kts | 92° |
| 2026-05-06 00:25 | -34.95784 | 139.01001 | 17808 ft | 401 kts | 91° |
| 2026-05-06 00:25 | -34.95872 | 139.05527 | 18671 ft | 407 kts | 91° |
| 2026-05-06 00:25 | -34.95939 | 139.08995 | 19251 ft | 410 kts | 91° |
| 2026-05-06 00:25 | -34.96005 | 139.12479 | 19853 ft | 413 kts | 91° |
| 2026-05-06 00:26 | -34.96050 | 139.14850 | 20245 ft | 415 kts | 91° |
| 2026-05-06 00:26 | -34.96116 | 139.18391 | 20832 ft | 419 kts | 91° |
| 2026-05-06 00:26 | -34.96181 | 139.21952 | 21406 ft | 422 kts | 91° |
| 2026-05-06 00:26 | -34.96246 | 139.25545 | 21966 ft | 426 kts | 91° |
| 2026-05-06 00:27 | -34.96310 | 139.29169 | 22524 ft | 429 kts | 91° |
| 2026-05-06 00:27 | -34.96374 | 139.32822 | 23080 ft | 433 kts | 91° |
| 2026-05-06 00:27 | -34.96437 | 139.36505 | 23621 ft | 437 kts | 91° |
| 2026-05-06 00:27 | -34.96500 | 139.40225 | 24092 ft | 440 kts | 91° |
| 2026-05-06 00:28 | -34.96562 | 139.43974 | 24542 ft | 444 kts | 91° |
| 2026-05-06 00:28 | -34.96624 | 139.47747 | 24981 ft | 447 kts | 91° |
| 2026-05-06 00:28 | -34.96684 | 139.51496 | 25396 ft | 450 kts | 91° |
| 2026-05-06 00:28 | -34.96744 | 139.55327 | 25816 ft | 454 kts | 91° |
| 2026-05-06 00:29 | -34.96803 | 139.59189 | 26219 ft | 457 kts | 90° |
| 2026-05-06 00:29 | -34.96862 | 139.63073 | 26629 ft | 460 kts | 90° |
| 2026-05-06 00:29 | -34.96919 | 139.66986 | 27028 ft | 463 kts | 90° |
| 2026-05-06 00:29 | -34.96976 | 139.70924 | 27420 ft | 466 kts | 90° |
| 2026-05-06 00:30 | -34.97032 | 139.74887 | 27795 ft | 469 kts | 90° |
| 2026-05-06 00:30 | -34.97087 | 139.78877 | 28163 ft | 472 kts | 90° |
| 2026-05-06 00:30 | -34.97141 | 139.82890 | 28533 ft | 475 kts | 90° |
| 2026-05-06 00:30 | -34.97194 | 139.86921 | 28883 ft | 478 kts | 90° |
| 2026-05-06 00:31 | -34.97246 | 139.90982 | 29199 ft | 481 kts | 90° |
| 2026-05-06 00:31 | -34.97346 | 139.99150 | 29279 ft | 481 kts | 90° |
| 2026-05-06 00:32 | -34.97441 | 140.07300 | 29271 ft | 481 kts | 90° |
| 2026-05-06 00:32 | -34.97531 | 140.15459 | 29277 ft | 481 kts | 90° |
| 2026-05-06 00:33 | -34.97614 | 140.23616 | 29272 ft | 481 kts | 90° |
| 2026-05-06 00:33 | -34.97694 | 140.31775 | 29273 ft | 481 kts | 90° |
| 2026-05-06 00:34 | -34.97767 | 140.39938 | 29273 ft | 481 kts | 90° |
| 2026-05-06 00:34 | -34.97833 | 140.48091 | 29272 ft | 481 kts | 89° |
| 2026-05-06 00:35 | -34.97895 | 140.56253 | 29270 ft | 481 kts | 89° |
| 2026-05-06 00:35 | -34.97950 | 140.64324 | 29271 ft | 481 kts | 89° |
| 2026-05-06 00:36 | -34.98002 | 140.72505 | 29272 ft | 481 kts | 89° |
| 2026-05-06 00:36 | -34.98047 | 140.80662 | 29270 ft | 481 kts | 89° |
| 2026-05-06 00:37 | -34.98087 | 140.88804 | 29269 ft | 481 kts | 89° |
| 2026-05-06 00:37 | -34.98122 | 140.96958 | 29265 ft | 480 kts | 89° |
| 2026-05-06 00:38 | -34.98151 | 141.05098 | 29267 ft | 480 kts | 89° |
| 2026-05-06 00:38 | -34.98175 | 141.13245 | 29263 ft | 480 kts | 89° |
| 2026-05-06 00:39 | -34.98193 | 141.21388 | 29270 ft | 480 kts | 89° |
| 2026-05-06 00:39 | -34.98206 | 141.29523 | 29262 ft | 480 kts | 89° |
| 2026-05-06 00:40 | -34.98213 | 141.37659 | 29265 ft | 480 kts | 89° |
| 2026-05-06 00:40 | -34.98215 | 141.45790 | 29265 ft | 480 kts | 88° |
| 2026-05-06 00:41 | -34.98211 | 141.53925 | 29268 ft | 480 kts | 88° |
| 2026-05-06 00:41 | -34.98201 | 141.62055 | 29266 ft | 480 kts | 88° |
| 2026-05-06 00:42 | -34.98187 | 141.70187 | 29269 ft | 479 kts | 88° |
| 2026-05-06 00:42 | -34.98167 | 141.78314 | 29265 ft | 479 kts | 88° |
| 2026-05-06 00:43 | -34.98142 | 141.86384 | 29264 ft | 479 kts | 88° |
| 2026-05-06 00:43 | -34.98111 | 141.94513 | 29265 ft | 479 kts | 88° |
| 2026-05-06 00:44 | -34.98074 | 142.02633 | 29266 ft | 479 kts | 88° |
| 2026-05-06 00:44 | -34.98033 | 142.10756 | 29265 ft | 479 kts | 88° |
| 2026-05-06 00:45 | -34.97985 | 142.18872 | 29265 ft | 479 kts | 88° |
| 2026-05-06 00:45 | -34.97933 | 142.26992 | 29266 ft | 479 kts | 87° |
| 2026-05-06 00:46 | -34.97875 | 142.35110 | 29260 ft | 479 kts | 87° |
| 2026-05-06 00:46 | -34.97812 | 142.43219 | 29263 ft | 479 kts | 87° |
| 2026-05-06 00:47 | -34.97743 | 142.51343 | 29266 ft | 479 kts | 87° |
| 2026-05-06 00:47 | -34.97669 | 142.59458 | 29263 ft | 479 kts | 87° |
| 2026-05-06 00:48 | -34.97589 | 142.67569 | 29264 ft | 478 kts | 87° |
| 2026-05-06 00:48 | -34.97504 | 142.75681 | 29261 ft | 478 kts | 86° |
| 2026-05-06 00:49 | -34.97414 | 142.83787 | 29260 ft | 478 kts | 86° |
| 2026-05-06 00:49 | -34.97318 | 142.91885 | 29261 ft | 477 kts | 86° |
| 2026-05-06 00:50 | -34.97217 | 142.99977 | 29259 ft | 477 kts | 86° |
| 2026-05-06 00:50 | -34.97111 | 143.08065 | 29264 ft | 477 kts | 86° |
| 2026-05-06 00:51 | -34.97000 | 143.16146 | 29261 ft | 477 kts | 86° |
| 2026-05-06 00:51 | -34.96885 | 143.24221 | 29257 ft | 476 kts | 86° |
| 2026-05-06 00:52 | -34.96786 | 143.32238 | 29263 ft | 476 kts | 86° |
| 2026-05-06 00:52 | -34.96695 | 143.40018 | 29256 ft | 476 kts | 86° |
| 2026-05-06 00:53 | -34.96593 | 143.48087 | 29258 ft | 476 kts | 86° |
| 2026-05-06 00:53 | -34.96483 | 143.56144 | 29258 ft | 475 kts | 86° |
| 2026-05-06 00:54 | -34.96368 | 143.64193 | 29261 ft | 475 kts | 86° |
| 2026-05-06 00:54 | -34.96248 | 143.72231 | 29259 ft | 474 kts | 86° |
| 2026-05-06 00:55 | -34.96123 | 143.80267 | 29260 ft | 474 kts | 86° |
| 2026-05-06 00:55 | -34.95992 | 143.88303 | 29263 ft | 474 kts | 86° |
| 2026-05-06 00:56 | -34.95856 | 143.96329 | 29262 ft | 474 kts | 86° |
| 2026-05-06 00:56 | -34.95715 | 144.04357 | 29260 ft | 474 kts | 86° |
| 2026-05-06 00:57 | -34.95569 | 144.12384 | 29262 ft | 474 kts | 86° |
| 2026-05-06 00:57 | -34.95417 | 144.20410 | 29261 ft | 474 kts | 86° |
| 2026-05-06 00:58 | -34.95260 | 144.28437 | 29263 ft | 474 kts | 86° |
| 2026-05-06 00:58 | -34.95097 | 144.36463 | 29262 ft | 474 kts | 86° |
| 2026-05-06 00:59 | -34.94930 | 144.44490 | 29263 ft | 474 kts | 86° |
| 2026-05-06 00:59 | -34.94757 | 144.52516 | 29261 ft | 474 kts | 86° |
| 2026-05-06 01:00 | -34.94580 | 144.60483 | 29252 ft | 474 kts | 86° |
| 2026-05-06 01:00 | -34.94397 | 144.68506 | 29261 ft | 473 kts | 86° |
| 2026-05-06 01:01 | -34.94208 | 144.76521 | 29255 ft | 473 kts | 86° |
| 2026-05-06 01:01 | -34.94014 | 144.84535 | 29256 ft | 473 kts | 86° |
| 2026-05-06 01:02 | -34.93816 | 144.92537 | 29253 ft | 472 kts | 86° |
| 2026-05-06 01:02 | -34.93612 | 145.00540 | 29257 ft | 472 kts | 86° |
| 2026-05-06 01:03 | -34.93405 | 145.08534 | 29252 ft | 472 kts | 86° |
| 2026-05-06 01:03 | -34.93178 | 145.16529 | 29254 ft | 472 kts | 86° |
| 2026-05-06 01:04 | -34.92949 | 145.24495 | 28977 ft | 468 kts | 86° |
| 2026-05-06 01:04 | -34.92836 | 145.28446 | 28472 ft | 465 kts | 86° |
| 2026-05-06 01:04 | -34.92724 | 145.32370 | 27879 ft | 461 kts | 86° |
| 2026-05-06 01:04 | -34.92612 | 145.36257 | 27288 ft | 457 kts | 86° |
| 2026-05-06 01:05 | -34.92497 | 145.40111 | 26697 ft | 453 kts | 86° |
| 2026-05-06 01:05 | -34.92383 | 145.43931 | 26104 ft | 449 kts | 86° |
| 2026-05-06 01:05 | -34.92267 | 145.47718 | 25534 ft | 446 kts | 86° |
| 2026-05-06 01:05 | -34.92151 | 145.51478 | 24972 ft | 442 kts | 86° |
| 2026-05-06 01:06 | -34.92035 | 145.55205 | 24415 ft | 439 kts | 86° |
| 2026-05-06 01:06 | -34.91919 | 145.58897 | 23881 ft | 435 kts | 86° |
| 2026-05-06 01:06 | -34.91802 | 145.62569 | 23256 ft | 431 kts | 86° |
| 2026-05-06 01:06 | -34.91687 | 145.66199 | 22662 ft | 427 kts | 86° |
| 2026-05-06 01:07 | -34.91571 | 145.69798 | 22078 ft | 423 kts | 86° |
| 2026-05-06 01:07 | -34.91454 | 145.73366 | 21492 ft | 419 kts | 86° |
| 2026-05-06 01:07 | -34.91338 | 145.76898 | 20935 ft | 416 kts | 86° |
| 2026-05-06 01:07 | -34.91222 | 145.80406 | 20393 ft | 412 kts | 86° |
| 2026-05-06 01:08 | -34.91106 | 145.83876 | 19851 ft | 408 kts | 86° |
| 2026-05-06 01:08 | -34.90990 | 145.87317 | 19324 ft | 405 kts | 86° |
| 2026-05-06 01:08 | -34.90874 | 145.90728 | 18808 ft | 401 kts | 86° |
| 2026-05-06 01:08 | -34.90758 | 145.94113 | 18249 ft | 398 kts | 86° |
| 2026-05-06 01:09 | -34.90642 | 145.97465 | 17691 ft | 394 kts | 86° |
| 2026-05-06 01:09 | -34.90527 | 146.00786 | 17143 ft | 390 kts | 86° |
| 2026-05-06 01:09 | -34.90413 | 146.04030 | 16608 ft | 387 kts | 86° |
| 2026-05-06 01:09 | -34.90297 | 146.07288 | 16096 ft | 383 kts | 86° |
| 2026-05-06 01:10 | -34.90182 | 146.10518 | 15575 ft | 380 kts | 86° |
| 2026-05-06 01:10 | -34.90068 | 146.13701 | 15330 ft | 375 kts | 86° |
| 2026-05-06 01:10 | -34.89953 | 146.16888 | 15266 ft | 379 kts | 86° |
| 2026-05-06 01:10 | -34.89836 | 146.20080 | 15258 ft | 372 kts | 86° |
| 2026-05-06 01:11 | -34.89725 | 146.23155 | 15260 ft | 354 kts | 86° |
| 2026-05-06 01:11 | -34.89619 | 146.26074 | 15260 ft | 338 kts | 85° |
| 2026-05-06 01:11 | -34.89513 | 146.28943 | 15261 ft | 342 kts | 85° |
| 2026-05-06 01:11 | -34.89403 | 146.31840 | 15260 ft | 343 kts | 85° |
| 2026-05-06 01:12 | -34.89292 | 146.34739 | 15260 ft | 342 kts | 85° |
| 2026-05-06 01:12 | -34.89183 | 146.37628 | 15262 ft | 342 kts | 85° |
| 2026-05-06 01:12 | -34.89072 | 146.40518 | 15261 ft | 342 kts | 85° |
| 2026-05-06 01:12 | -34.88961 | 146.43414 | 15260 ft | 342 kts | 85° |
| 2026-05-06 01:13 | -34.88850 | 146.46305 | 15262 ft | 342 kts | 85° |
| 2026-05-06 01:13 | -34.88738 | 146.49197 | 15259 ft | 342 kts | 85° |
| 2026-05-06 01:13 | -34.88625 | 146.52088 | 15260 ft | 342 kts | 85° |
| 2026-05-06 01:13 | -34.88512 | 146.54980 | 15256 ft | 342 kts | 85° |
| 2026-05-06 01:14 | -34.88284 | 146.60762 | 15257 ft | 342 kts | 85° |
| 2026-05-06 01:14 | -34.88168 | 146.63653 | 15257 ft | 342 kts | 85° |
| 2026-05-06 01:14 | -34.88052 | 146.66542 | 15259 ft | 342 kts | 85° |
| 2026-05-06 01:15 | -34.87974 | 146.68460 | 15256 ft | 342 kts | 85° |
| 2026-05-06 01:15 | -34.87826 | 146.72106 | 15259 ft | 342 kts | 85° |
| 2026-05-06 01:15 | -34.87708 | 146.74997 | 15257 ft | 342 kts | 85° |
| 2026-05-06 01:15 | -34.87629 | 146.76912 | 15258 ft | 342 kts | 85° |
| 2026-05-06 01:16 | -34.87510 | 146.79801 | 15258 ft | 342 kts | 85° |
| 2026-05-06 01:16 | -34.87390 | 146.82691 | 15258 ft | 342 kts | 85° |
| 2026-05-06 01:16 | -34.87228 | 146.86556 | 15255 ft | 342 kts | 85° |
| 2026-05-06 01:16 | -34.87148 | 146.88471 | 15260 ft | 342 kts | 85° |
| 2026-05-06 01:17 | -34.87026 | 146.91362 | 15258 ft | 342 kts | 85° |
| 2026-05-06 01:17 | -34.86903 | 146.94251 | 15258 ft | 341 kts | 85° |
| 2026-05-06 01:17 | -34.86780 | 146.97139 | 15257 ft | 341 kts | 85° |
| 2026-05-06 01:17 | -34.86655 | 147.00026 | 15258 ft | 342 kts | 85° |
| 2026-05-06 01:18 | -34.86531 | 147.02912 | 15253 ft | 342 kts | 85° |
| 2026-05-06 01:18 | -34.86405 | 147.05797 | 15256 ft | 341 kts | 85° |
| 2026-05-06 01:18 | -34.86279 | 147.08685 | 15252 ft | 341 kts | 85° |
| 2026-05-06 01:18 | -34.86153 | 147.11569 | 15255 ft | 342 kts | 85° |
| 2026-05-06 01:19 | -34.86025 | 147.14453 | 15258 ft | 341 kts | 85° |
| 2026-05-06 01:19 | -34.85897 | 147.17337 | 15255 ft | 341 kts | 85° |
| 2026-05-06 01:19 | -34.85768 | 147.20217 | 15254 ft | 341 kts | 85° |
| 2026-05-06 01:19 | -34.85639 | 147.23104 | 15255 ft | 341 kts | 85° |
| 2026-05-06 01:20 | -34.85509 | 147.25984 | 15254 ft | 341 kts | 85° |
| 2026-05-06 01:20 | -34.85378 | 147.28865 | 15252 ft | 341 kts | 85° |
| 2026-05-06 01:20 | -34.85247 | 147.31743 | 15256 ft | 341 kts | 85° |
| 2026-05-06 01:20 | -34.85115 | 147.34625 | 15254 ft | 341 kts | 85° |
| 2026-05-06 01:21 | -34.84982 | 147.37504 | 15252 ft | 341 kts | 85° |
| 2026-05-06 01:21 | -34.84849 | 147.40384 | 15252 ft | 341 kts | 85° |
| 2026-05-06 01:21 | -34.84715 | 147.43259 | 15252 ft | 340 kts | 85° |
| 2026-05-06 01:21 | -34.84581 | 147.46134 | 15248 ft | 340 kts | 85° |
| 2026-05-06 01:22 | -34.84445 | 147.49011 | 15250 ft | 340 kts | 85° |
| 2026-05-06 01:22 | -34.84310 | 147.51890 | 15251 ft | 341 kts | 85° |
| 2026-05-06 01:22 | -34.84173 | 147.54765 | 15248 ft | 340 kts | 85° |
| 2026-05-06 01:22 | -34.84036 | 147.57642 | 15249 ft | 340 kts | 85° |
| 2026-05-06 01:23 | -34.83898 | 147.60514 | 15246 ft | 340 kts | 85° |
| 2026-05-06 01:23 | -34.83759 | 147.63391 | 15244 ft | 340 kts | 85° |
| 2026-05-06 01:23 | -34.83620 | 147.66262 | 15248 ft | 340 kts | 85° |
| 2026-05-06 01:23 | -34.83480 | 147.69133 | 15244 ft | 340 kts | 85° |
| 2026-05-06 01:24 | -34.83340 | 147.72009 | 15244 ft | 340 kts | 85° |
| 2026-05-06 01:24 | -34.83198 | 147.74881 | 15243 ft | 340 kts | 85° |
| 2026-05-06 01:24 | -34.83057 | 147.77752 | 15246 ft | 340 kts | 85° |
| 2026-05-06 01:24 | -34.82914 | 147.80625 | 15242 ft | 340 kts | 85° |
| 2026-05-06 01:25 | -34.82773 | 147.83464 | 15241 ft | 340 kts | 85° |
| 2026-05-06 01:25 | -34.82629 | 147.86336 | 15242 ft | 340 kts | 85° |
| 2026-05-06 01:25 | -34.82482 | 147.89246 | 15241 ft | 340 kts | 85° |
| 2026-05-06 01:25 | -34.82337 | 147.92117 | 15243 ft | 341 kts | 85° |
| 2026-05-06 01:26 | -34.82193 | 147.94952 | 15240 ft | 340 kts | 85° |
| 2026-05-06 01:26 | -34.82047 | 147.97823 | 15239 ft | 340 kts | 85° |
| 2026-05-06 01:26 | -34.81897 | 148.00731 | 15241 ft | 340 kts | 85° |
| 2026-05-06 01:26 | -34.81749 | 148.03602 | 15242 ft | 340 kts | 85° |
| 2026-05-06 01:27 | -34.81601 | 148.06469 | 15235 ft | 340 kts | 85° |
| 2026-05-06 01:27 | -34.81454 | 148.09300 | 15241 ft | 340 kts | 85° |
| 2026-05-06 01:27 | -34.81304 | 148.12174 | 15237 ft | 340 kts | 85° |
| 2026-05-06 01:27 | -34.81153 | 148.15045 | 15241 ft | 340 kts | 85° |
| 2026-05-06 01:28 | -34.81002 | 148.17916 | 15238 ft | 340 kts | 85° |
| 2026-05-06 01:28 | -34.80850 | 148.20782 | 15243 ft | 340 kts | 85° |
| 2026-05-06 01:28 | -34.80697 | 148.23654 | 15235 ft | 340 kts | 85° |
| 2026-05-06 01:28 | -34.80544 | 148.26522 | 15235 ft | 340 kts | 85° |
| 2026-05-06 01:29 | -34.80390 | 148.29391 | 15234 ft | 340 kts | 85° |
| 2026-05-06 01:29 | -34.80236 | 148.32264 | 15236 ft | 340 kts | 85° |
| 2026-05-06 01:29 | -34.80080 | 148.35132 | 15234 ft | 340 kts | 85° |